Have a Safe July 4th! 

Flight Track Log - Related Links

Times and Time Zones

All times are in EDT time to prevent confusion due to time zone crossing. See the SWA378 flight status page for this flight to view local times or setup timezone preferences in your user account.

Time Position Orientation Groundspeed Altitude Reporting Facility
EDT Latitude Longitude Course Direction KTS MPH feet Rate Location/Type
Fri 08:15:16 AM 29.6353 -95.2892 179° South 157 181 600  Level Houston Center
Fri 08:15:58 AM 29.6131 -95.2889 179° South 143 165 1,700 1,855 Climbing Houston Center
Fri 08:16:11 AM 29.5983 -95.2744 140° Southeast 193 222 2,300 2,226 Climbing Houston Center
Fri 08:17:00 AM 29.5686 -95.2472 141° Southeast 211 243 4,000 2,557 Climbing Houston Center
Fri 08:17:12 AM 29.5558 -95.2242 122° Southeast 249 287 4,900 3,443 Climbing Houston Center
Fri 08:18:01 AM 29.5514 -95.1503 94° East 276 318 7,500 3,218 Climbing Houston Center
Fri 08:19:02 AM 29.5483 -95.0561 92° East 299 344 10,800 3,024 Climbing Houston Center
Fri 08:20:04 AM 29.5728 -94.9517 75° East 346 398 13,700 2,829 Climbing Houston Center
Fri 08:21:05 AM 29.6000 -94.8403 74° East 362 417 16,600 2,705 Climbing Houston Center
Fri 08:22:06 AM 29.6292 -94.7239 74° East 377 434 19,200 2,293 Climbing Houston Center
Fri 08:23:08 AM 29.6586 -94.6003 75° East 393 452 21,300 2,049 Climbing Houston Center
Fri 08:24:09 AM 29.6906 -94.4692 74° East 416 479 23,400 2,341 Climbing Houston Center
Fri 08:25:11 AM 29.7172 -94.3050 79° East 436 502 26,100 2,146 Climbing Houston Center
Fri 08:26:12 AM 29.7014 -94.1561 97° East 448 516 27,800 1,623 Climbing Houston Center
Fri 08:27:13 AM 29.6856 -94.0078 97° East 466 536 29,400 1,756 Climbing Houston Center
Fri 08:28:15 AM 29.7039 -93.8578 82° East 480 552 31,400 1,756 Climbing Houston Center
Fri 08:29:16 AM 29.7269 -93.7081 80° East 479 551 33,000 780 Climbing Houston Center
Fri 08:30:18 AM 29.7492 -93.5581 80° East 480 552 33,000  Level Houston Center
Fri 08:31:19 AM 29.7717 -93.4103 80° East 474 545 33,000  Level Houston Center
Fri 08:32:21 AM 29.7933 -93.2631 80° East 471 542 33,000  Level Houston Center
Fri 08:33:22 AM 29.8194 -93.0858 80° East 472 543 33,000  Level Houston Center
Fri 08:34:24 AM 29.8417 -92.9375 80° East 471 542 33,000  Level Houston Center
Fri 08:35:25 AM 29.8633 -92.7897 80° East 473 544 33,000  Level Houston Center
Fri 08:36:27 AM 29.8853 -92.6403 80° East 474 545 33,000 -780 Level Houston Center
Fri 08:37:28 AM 29.9061 -92.4919 81° East 472 543 31,400 -1,805 Descending Houston Center
Fri 08:38:30 AM 29.9275 -92.3436 81° East 472 543 29,300 -2,049 Descending Houston Center
Fri 08:39:31 AM 29.9472 -92.1997 81° East 462 532 27,200 -2,146 Descending Houston Center
Fri 08:40:33 AM 29.9700 -92.0331 81° East 447 514 24,900 -1,984 Descending Houston Center
Fri 08:41:35 AM 29.9889 -91.9011 81° East 429 494 23,100 -1,707 Descending Houston Center
Fri 08:42:36 AM 30.0056 -91.7750 81° East 410 472 21,400 -1,707 Descending Houston Center
Fri 08:43:38 AM 30.0236 -91.6486 81° East 386 444 19,600 -1,659 Descending Houston Center
Fri 08:44:39 AM 30.0408 -91.5336 80° East 368 423 18,000 -1,561 Descending Houston Center
Fri 08:45:41 AM 30.0553 -91.4203 82° East 358 412 16,400 -1,597 Descending Houston Center
Fri 08:46:43 AM 30.0697 -91.3097 81° East 352 405 14,700 -1,784 Descending Houston Center
Fri 08:46:55 AM 30.0742 -91.2733 82° East 346 398 14,200 -1,574 Descending Houston Center
Fri 08:47:44 AM 30.0844 -91.2031 80° East 341 392 13,100 -1,574 Descending Houston Center
Fri 08:47:56 AM 30.0883 -91.1647 83° East 337 388 12,600 -1,548 Descending Houston Center
Fri 08:48:46 AM 30.1003 -91.0983 78° East 334 384 11,500 -1,636 Descending Houston Center
Fri 08:48:51 AM 30.1028 -91.0706 84° East 326 375 11,100 -1,065 Descending Houston Center
Fri 08:49:48 AM 30.1147 -90.9797 81° East 316 364 10,400 -800 Descending Houston Center
Fri 08:49:51 AM 30.1150 -90.9717 88° East 306 352 10,300 -1,377 Descending Houston Center
Fri 08:50:49 AM 30.1267 -90.8822 81° East 307 353 9,000 -1,279 Descending Houston Center
Fri 08:50:52 AM 30.1272 -90.8753 85° East 302 348 9,000 -1,161 Level Houston Center
Fri 08:51:51 AM 30.1325 -90.7914 86° East 297 342 7,800 -1,377 Descending Houston Center
Fri 08:51:53 AM 30.1269 -90.7861 141° Southeast 279 321 7,600 -2,226 Descending Houston Center
Fri 08:52:53 AM 30.1039 -90.7031 108° East 266 306 5,500 -1,587 Descending Houston Center
Fri 08:53:54 AM 30.0828 -90.6219 107° East 261 300 4,400 -634 Descending Houston Center
Fri 08:54:56 AM 30.0675 -90.5633 107° East 245 282 4,200 -435 Descending Houston Center
Fri 08:55:58 AM 30.0506 -90.5036 108° East 213 245 3,500 -831 Descending Houston Center
Fri 08:56:01 AM 30.0456 -90.4889 111° Southeast 189 217 3,300 -1,138 Descending Houston Center
Fri 08:56:56 AM 30.0336 -90.4342 104° East 196 226 2,400 -1,034 Descending Houston Center
Fri 08:56:59 AM 30.0331 -90.4314 103° East 200 230 2,300 -885 Descending Houston Center
Fri 08:57:57 AM 30.0172 -90.3747 108° East 193 222 1,500 -871 Descending Houston Center
Fri 08:58:01 AM 30.0197 -90.3731 30° Northeast 195 224 1,400 -700 Descending Houston Center
Fri 08:58:57 AM 30.0075 -90.3294 108° East 143 165 800 -677 Descending Houston Center
Fri 08:59:03 AM 30.0094 -90.3281 32° Northeast 166 191 700 -590 Descending Houston Center
Fri 08:59:58 AM 29.9981 -90.2889 109° East 133 153 200 -98 Descending Houston Center
Fri 09:00:04 AM 30.0014 -90.2900 344° North 158 182 600 4,000 Climbing Houston Center

Login

Don't have an account? Register now (free) for customized features, flight alerts, and more!